This is the latest recevied weather packets stored in our database for station/object KJ5MTR. If no packets are shown the sender has not sent any weather packets the latest 10 day(s).
| Time | Temp. | Humidity | Pressure | Rain* | Wind** | Luminosity | Snow |
|---|---|---|---|---|---|---|---|
| 1777186516 | 23.33° C | 90% | 1006.8 hPa | 0 mm | - | - | - |
| 1777182316 | 23.89° C | 88% | 1006.7 hPa | 0 mm | - | - | - |
| 1777179316 | 24.44° C | 86% | 1006.8 hPa | 0 mm | - | - | - |
| 1777172116 | 26.67° C | 79% | 1006 hPa | 0 mm | - | - | - |
| 1777171516 | 26.67° C | 79% | 1005.7 hPa | 0 mm | - | - | - |
| 1777170316 | 27.22° C | 77% | 1005.3 hPa | 0 mm | - | - | - |
| 1777168555 | 27.22° C | 74% | 1004.7 hPa | 0 mm | - | - | - |
| 1777165536 | 28.89° C | 67% | 1004.3 hPa | 0 mm | - | - | - |
| 1777164315 | 29.44° C | 66% | 1004.4 hPa | 0 mm | - | - | - |
| 1777160757 | 31.11° C | 58% | 1004.8 hPa | 0 mm | - | - | - |
| 1777154718 | 31.67° C | 58% | 1005.2 hPa | 0 mm | - | - | - |
| 1777151717 | 31.67° C | 57% | 1005.9 hPa | 0 mm | - | - | - |
| 1777148737 | 32.22° C | 56% | 1006.4 hPa | 0 mm | - | - | - |
| 1777147517 | 31.67° C | 58% | 1006.6 hPa | 0 mm | - | - | - |
| 1777144537 | 31.11° C | 60% | 1006.9 hPa | 0 mm | - | - | - |
| 1777140937 | 30° C | 65% | 1007.4 hPa | 0 mm | - | - | - |
| 1777140317 | 30° C | 65% | 1007.5 hPa | 0 mm | - | - | - |
| 1777133737 | 28.33° C | 74% | 1008.2 hPa | 0 mm | - | - | - |
| 1777129536 | 26.11° C | 84% | 1008.5 hPa | 0 mm | - | - | - |
| 1777126541 | 23.89° C | 90% | 1008.5 hPa | 0 mm | - | - | - |
| 1777123516 | 23.33° C | 90% | 1008.2 hPa | 0 mm | - | - | - |
| 1777122316 | 23.33° C | 91% | 1008 hPa | 0 mm | - | - | - |
| 1777121717 | 23.33° C | 91% | 1007.9 hPa | 0 mm | - | - | - |
| 1777119916 | 23.33° C | 91% | 1007.2 hPa | 0 mm | - | - | - |
| 1777116916 | 23.33° C | 91% | 1006.6 hPa | 0 mm | - | - | - |
* Rain latest hour (hover to see other rain measurements)
** Current wind speed in m/s (hover to see current wind gust speed)